Time;durP1;ratioP1;P1;durP2;ratioP2;P2;SDS_P1;SDS_P2;PMS_P1;PMS_P2;Temp;Humidity;BMP_temperature;BMP_pressure;BME280_temperature;BME280_humidity;BME280_pressure;Samples;Min_cycle;Max_cycle;Signal;HPM_P1;HPM_P2
2022/03/23 00:02:49;;;;;;;;;;;5.30;93.30;;;;;;5078169;28;20419;-67
2022/03/23 00:05:18;;;;;;;;;;;5.20;93.90;;;;;;5066501;28;19929;-66
2022/03/23 00:07:45;;;;;;;;;;;5.20;94.20;;;;;;5065710;28;20130;-66
2022/03/23 00:10:12;;;;;;;;;;;5.10;94.60;;;;;;5006427;28;19930;-66
2022/03/23 00:12:44;;;;;;;;;;;5.10;95.00;;;;;;5007067;28;20364;-66
2022/03/23 00:15:12;;;;;;;;;;;5.10;95.20;;;;;;5006114;28;19948;-66
2022/03/23 00:17:42;;;;;;;;;;;5.00;95.60;;;;;;5007285;28;19929;-66
2022/03/23 00:20:10;;;;;;;;;;;5.00;96.00;;;;;;5007414;28;20446;-66
2022/03/23 00:22:37;;;;;;;;;;;5.00;96.30;;;;;;5001341;28;19938;-66
2022/03/23 00:25:06;;;;;;;;;;;4.90;96.50;;;;;;5006670;28;20372;-66
2022/03/23 00:27:33;;;;;;;;;;;4.90;96.70;;;;;;5006750;28;19930;-66
2022/03/23 00:30:01;;;;;;;;;;;4.90;96.80;;;;;;5006235;28;19937;-66
2022/03/23 00:32:31;;;;;;;;;;;4.90;96.90;;;;;;5006114;28;20465;-67
2022/03/23 00:35:01;;;;;;;;;;;4.90;97.20;;;;;;5020995;28;20367;-67
2022/03/23 00:37:28;;;;;;;;;;;4.90;97.30;;;;;;5005442;28;19936;-67
2022/03/23 00:39:56;;;;;;;;;;;4.90;97.40;;;;;;5005448;28;19948;-66
2022/03/23 00:42:23;;;;;;;;;;;4.90;97.50;;;;;;5006662;28;19930;-66
2022/03/23 00:44:52;;;;;;;;;;;4.80;97.60;;;;;;5005157;28;19984;-66
2022/03/23 00:47:22;;;;;;;;;;;4.80;98.30;;;;;;4989212;28;19926;-66
2022/03/23 00:49:49;;;;;;;;;;;4.80;98.80;;;;;;5000407;28;19926;-66
2022/03/23 00:52:16;;;;;;;;;;;4.80;99.50;;;;;;5004549;28;19930;-66
2022/03/23 00:54:44;;;;;;;;;;;4.70;99.50;;;;;;4997336;28;19930;-67
2022/03/23 00:57:11;;;;;;;;;;;4.70;99.90;;;;;;5014067;28;20053;-65
2022/03/23 00:59:39;;;;;;;;;;;4.70;99.90;;;;;;4996310;28;20257;-65
2022/03/23 01:02:10;;;;;;;;;;;4.60;99.90;;;;;;5005071;28;19944;-66
2022/03/23 01:04:38;;;;;;;;;;;4.60;99.90;;;;;;5004494;28;20205;-66
2022/03/23 01:07:05;;;;;;;;;;;4.60;99.90;;;;;;5005186;28;20288;-65
2022/03/23 01:09:35;;;;;;;;;;;4.50;99.90;;;;;;5003539;28;20393;-66
2022/03/23 01:12:03;;;;;;;;;;;4.50;99.90;;;;;;4998162;28;20466;-66
2022/03/23 01:14:30;;;;;;;;;;;4.40;99.90;;;;;;4982180;28;19938;-66
2022/03/23 01:17:01;;;;;;;;;;;4.40;99.90;;;;;;4990547;28;20383;-66
2022/03/23 01:19:28;;;;;;;;;;;4.30;99.90;;;;;;4993467;28;20077;-66
2022/03/23 01:21:56;;;;;;;;;;;4.20;99.90;;;;;;4991607;28;19937;-67
2022/03/23 01:24:23;;;;;;;;;;;4.20;99.90;;;;;;4992924;28;19926;-66
2022/03/23 01:26:52;;;;;;;;;;;4.20;99.90;;;;;;4992757;28;19996;-66
2022/03/23 01:29:19;;;;;;;;;;;4.10;99.90;;;;;;4988293;28;20344;-67
2022/03/23 01:31:46;;;;;;;;;;;4.10;99.90;;;;;;4996656;28;19930;-66
2022/03/23 01:34:14;;;;;;;;;;;4.00;99.90;;;;;;5007743;28;20405;-66
2022/03/23 01:36:42;;;;;;;;;;;4.00;99.90;;;;;;4999992;28;19926;-66
2022/03/23 01:39:09;;;;;;;;;;;4.00;99.90;;;;;;4987061;28;20347;-67
2022/03/23 01:41:37;;;;;;;;;;;3.90;99.90;;;;;;4989339;28;19984;-65
2022/03/23 01:44:19;;;;;;;;;;;3.90;99.90;;;;;;4992168;28;19930;-66
2022/03/23 01:47:06;;;;;;;;;;;3.90;99.90;;;;;;4979361;28;20017;-66
2022/03/23 01:49:34;;;;;;;;;;;3.80;99.90;;;;;;4988596;28;20254;-66
2022/03/23 01:52:02;;;;;;;;;;;3.70;99.90;;;;;;5004862;28;20006;-65
2022/03/23 01:54:31;;;;;;;;;;;3.80;99.90;;;;;;4981248;28;20412;-65
2022/03/23 01:56:58;;;;;;;;;;;3.70;99.90;;;;;;4995013;28;20025;-66
2022/03/23 01:59:26;;;;;;;;;;;3.70;99.90;;;;;;4990664;28;19930;-65
2022/03/23 02:01:54;;;;;;;;;;;3.70;99.90;;;;;;4989931;28;20422;-66
2022/03/23 02:04:22;;;;;;;;;;;3.60;99.90;;;;;;4980615;28;19930;-66
2022/03/23 02:06:49;;;;;;;;;;;3.60;99.90;;;;;;5000983;28;19937;-66
2022/03/23 02:09:19;;;;;;;;;;;3.50;99.90;;;;;;4987001;28;19937;-66
2022/03/23 02:11:49;;;;;;;;;;;3.50;99.90;;;;;;4980339;28;20378;-65
2022/03/23 02:14:16;;;;;;;;;;;3.50;99.90;;;;;;5000474;28;19932;-65
2022/03/23 02:16:45;;;;;;;;;;;3.50;99.90;;;;;;5004275;28;19996;-65
2022/03/23 02:19:13;;;;;;;;;;;3.50;99.90;;;;;;4990560;28;19934;-66
2022/03/23 02:21:47;;;;;;;;;;;3.40;99.90;;;;;;5006572;28;19930;-66
2022/03/23 02:24:14;;;;;;;;;;;3.40;99.90;;;;;;5005741;28;19926;-66
2022/03/23 02:26:42;;;;;;;;;;;3.40;99.90;;;;;;4991692;28;20361;-66
2022/03/23 02:29:10;;;;;;;;;;;3.30;99.90;;;;;;4987205;28;19929;-65
2022/03/23 02:31:37;;;;;;;;;;;3.30;99.90;;;;;;5006094;28;20411;-66
2022/03/23 02:34:04;;;;;;;;;;;3.20;99.90;;;;;;4985764;28;20009;-66
2022/03/23 02:36:31;;;;;;;;;;;3.20;99.90;;;;;;4991144;28;20349;-65
2022/03/23 02:38:58;;;;;;;;;;;3.20;99.90;;;;;;4986483;28;20380;-66
2022/03/23 02:41:26;;;;;;;;;;;3.20;99.90;;;;;;4987231;28;19929;-65
2022/03/23 02:43:53;;;;;;;;;;;3.20;99.90;;;;;;4990439;28;20380;-66
2022/03/23 02:46:20;;;;;;;;;;;3.20;99.90;;;;;;4989931;28;19930;-65
2022/03/23 02:48:48;;;;;;;;;;;3.20;99.90;;;;;;4990501;28;19930;-65
2022/03/23 02:51:15;;;;;;;;;;;3.10;99.90;;;;;;4988308;28;19930;-66
2022/03/23 03:02:35;;;;;;;;;;;3.00;99.90;;;;;;4976326;28;20283;-66
2022/03/23 03:05:06;;;;;;;;;;;3.00;99.90;;;;;;5001534;28;20017;-66
2022/03/23 03:10:20;;;;;;;;;;;3.00;99.90;;;;;;4985203;28;19937;-66
2022/03/23 03:12:47;;;;;;;;;;;3.00;99.90;;;;;;4983232;28;19933;-66
2022/03/23 03:15:15;;;;;;;;;;;3.00;99.90;;;;;;4984459;28;19930;-65
2022/03/23 03:17:46;;;;;;;;;;;2.90;99.90;;;;;;4981137;28;20418;-65
2022/03/23 03:20:14;;;;;;;;;;;2.90;99.90;;;;;;4982407;28;20249;-67
2022/03/23 03:22:43;;;;;;;;;;;2.90;99.90;;;;;;4977507;28;20308;-66
2022/03/23 03:25:14;;;;;;;;;;;2.80;99.90;;;;;;4990938;28;19949;-66
2022/03/23 03:27:42;;;;;;;;;;;2.80;99.90;;;;;;4984711;28;20490;-67
2022/03/23 03:30:10;;;;;;;;;;;2.70;99.90;;;;;;4981253;28;20365;-67
2022/03/23 03:32:38;;;;;;;;;;;2.70;99.90;;;;;;4976511;28;19965;-67
2022/03/23 03:35:11;;;;;;;;;;;2.60;99.90;;;;;;4990557;28;19936;-67
2022/03/23 03:37:39;;;;;;;;;;;2.60;99.90;;;;;;4989469;28;20360;-66
2022/03/23 03:40:07;;;;;;;;;;;2.60;99.90;;;;;;4991028;28;20352;-66
2022/03/23 03:42:36;;;;;;;;;;;2.60;99.90;;;;;;4989137;28;19930;-66
2022/03/23 03:45:06;;;;;;;;;;;2.60;99.90;;;;;;4981042;28;20390;-65
2022/03/23 03:47:33;;;;;;;;;;;2.50;99.90;;;;;;4990187;28;19926;-65
2022/03/23 03:50:00;;;;;;;;;;;2.60;99.90;;;;;;4989000;28;19930;-67
2022/03/23 03:52:27;;;;;;;;;;;2.50;99.90;;;;;;4985934;28;19936;-66
2022/03/23 03:54:54;;;;;;;;;;;2.50;99.90;;;;;;4992751;28;19929;-64
2022/03/23 03:57:22;;;;;;;;;;;2.40;99.90;;;;;;4988968;28;20287;-66
2022/03/23 03:59:49;;;;;;;;;;;2.50;99.90;;;;;;4969358;28;20411;-66
2022/03/23 04:02:16;;;;;;;;;;;2.50;99.90;;;;;;4969415;28;19930;-66
2022/03/23 04:04:43;;;;;;;;;;;2.40;99.90;;;;;;4972014;28;19926;-67
2022/03/23 04:07:10;;;;;;;;;;;2.40;99.90;;;;;;4970723;28;19933;-65
2022/03/23 04:09:37;;;;;;;;;;;2.40;99.90;;;;;;4978123;28;19958;-65
2022/03/23 04:12:05;;;;;;;;;;;2.40;99.90;;;;;;4981910;28;20372;-67
2022/03/23 04:14:32;;;;;;;;;;;2.30;99.90;;;;;;4988382;28;20401;-66
2022/03/23 04:16:59;;;;;;;;;;;2.30;99.90;;;;;;4987755;28;19937;-66
2022/03/23 04:19:26;;;;;;;;;;;2.30;99.90;;;;;;4989440;28;20460;-66
2022/03/23 04:21:54;;;;;;;;;;;2.30;99.90;;;;;;4987523;28;19972;-66
2022/03/23 04:24:22;;;;;;;;;;;2.20;99.90;;;;;;4985213;28;19934;-66
2022/03/23 04:26:49;;;;;;;;;;;2.20;99.90;;;;;;4988562;28;19938;-66
2022/03/23 04:29:16;;;;;;;;;;;2.20;99.90;;;;;;4988385;28;19941;-67
2022/03/23 04:31:43;;;;;;;;;;;2.20;99.90;;;;;;4980556;28;20373;-65
2022/03/23 04:34:10;;;;;;;;;;;2.20;99.90;;;;;;4989118;28;19934;-65
2022/03/23 04:36:38;;;;;;;;;;;2.20;99.90;;;;;;4990810;28;19937;-65
2022/03/23 04:39:05;;;;;;;;;;;2.20;99.90;;;;;;4988604;28;20300;-66
2022/03/23 04:41:32;;;;;;;;;;;2.20;99.90;;;;;;4990090;28;19941;-66
2022/03/23 04:43:59;;;;;;;;;;;2.20;99.90;;;;;;5004488;28;20028;-66
2022/03/23 04:46:26;;;;;;;;;;;2.10;99.90;;;;;;4989338;28;19926;-66
2022/03/23 04:48:53;;;;;;;;;;;2.00;99.90;;;;;;4992935;28;19929;-66
2022/03/23 04:51:20;;;;;;;;;;;2.00;99.90;;;;;;4991091;28;19933;-66
2022/03/23 04:53:48;;;;;;;;;;;2.00;99.90;;;;;;4975314;28;19930;-66
2022/03/23 04:56:15;;;;;;;;;;;1.90;99.90;;;;;;4990768;28;20308;-66
2022/03/23 04:58:42;;;;;;;;;;;1.90;99.90;;;;;;4991067;28;19942;-67
2022/03/23 05:01:09;;;;;;;;;;;1.80;99.90;;;;;;4981088;28;20173;-67
2022/03/23 05:03:37;;;;;;;;;;;1.70;99.90;;;;;;4988429;28;20369;-66
2022/03/23 05:06:04;;;;;;;;;;;1.70;99.90;;;;;;4988948;28;19948;-65
2022/03/23 05:08:31;;;;;;;;;;;1.70;99.90;;;;;;4986058;28;20427;-67
2022/03/23 05:10:58;;;;;;;;;;;1.60;99.90;;;;;;5001238;28;19930;-66
2022/03/23 05:13:25;;;;;;;;;;;1.60;99.90;;;;;;4981060;28;20398;-66
2022/03/23 05:15:53;;;;;;;;;;;1.60;99.90;;;;;;4988987;28;20486;-66
2022/03/23 05:18:20;;;;;;;;;;;1.60;99.90;;;;;;4991694;28;19937;-66
2022/03/23 05:20:48;;;;;;;;;;;1.60;99.90;;;;;;4989655;28;20363;-65
2022/03/23 05:23:15;;;;;;;;;;;1.60;99.90;;;;;;4982251;28;19930;-67
2022/03/23 05:25:43;;;;;;;;;;;1.60;99.90;;;;;;4992866;28;19930;-67
2022/03/23 05:28:10;;;;;;;;;;;1.70;99.90;;;;;;4989827;28;19930;-66
2022/03/23 05:30:37;;;;;;;;;;;1.70;99.90;;;;;;4992075;28;20372;-66
2022/03/23 05:33:05;;;;;;;;;;;1.70;99.90;;;;;;4985204;28;19926;-65
2022/03/23 05:35:32;;;;;;;;;;;1.70;99.90;;;;;;4984472;28;19930;-65
2022/03/23 05:37:59;;;;;;;;;;;1.70;99.90;;;;;;4984453;28;19937;-66
2022/03/23 05:40:26;;;;;;;;;;;1.70;99.90;;;;;;4985103;28;20383;-66
2022/03/23 05:42:53;;;;;;;;;;;1.70;99.90;;;;;;4990268;28;19929;-66
2022/03/23 05:45:22;;;;;;;;;;;1.70;99.90;;;;;;4991530;28;19957;-65
2022/03/23 05:47:52;;;;;;;;;;;1.70;99.90;;;;;;4989500;28;19930;-67
2022/03/23 05:50:20;;;;;;;;;;;1.70;99.90;;;;;;4992132;28;19965;-66
2022/03/23 05:52:47;;;;;;;;;;;1.80;99.90;;;;;;4990539;28;19930;-66
2022/03/23 05:55:14;;;;;;;;;;;1.80;99.90;;;;;;4991109;28;20630;-66
2022/03/23 05:57:42;;;;;;;;;;;1.90;99.90;;;;;;4975942;28;20389;-66
2022/03/23 06:00:10;;;;;;;;;;;2.00;99.90;;;;;;4980993;28;19941;-66
2022/03/23 06:02:43;;;;;;;;;;;2.10;99.90;;;;;;4992372;28;19929;-66
2022/03/23 06:05:10;;;;;;;;;;;2.20;99.90;;;;;;4982517;28;20008;-66
2022/03/23 06:07:38;;;;;;;;;;;2.20;99.90;;;;;;4988446;28;19930;-66
2022/03/23 06:10:07;;;;;;;;;;;2.20;99.90;;;;;;4988525;28;19954;-67
2022/03/23 06:12:35;;;;;;;;;;;2.30;99.90;;;;;;4987585;28;20465;-67
2022/03/23 06:15:02;;;;;;;;;;;2.30;99.90;;;;;;4985807;28;20396;-67
2022/03/23 06:17:29;;;;;;;;;;;2.30;99.90;;;;;;4990713;28;20333;-67
2022/03/23 06:19:56;;;;;;;;;;;2.30;99.90;;;;;;4979564;28;19926;-66
2022/03/23 06:22:23;;;;;;;;;;;2.40;99.90;;;;;;4979226;28;19957;-66
2022/03/23 06:24:52;;;;;;;;;;;2.40;99.90;;;;;;4980622;28;20009;-66
2022/03/23 06:27:20;;;;;;;;;;;2.50;99.90;;;;;;4995458;28;19948;-66
2022/03/23 06:29:47;;;;;;;;;;;2.60;99.90;;;;;;4991274;28;19932;-67
2022/03/23 06:32:14;;;;;;;;;;;2.60;99.90;;;;;;4979631;28;20386;-66
2022/03/23 06:34:41;;;;;;;;;;;2.70;99.90;;;;;;4985916;28;20008;-66
2022/03/23 06:37:08;;;;;;;;;;;2.80;99.90;;;;;;4981955;28;20301;-67
2022/03/23 06:39:36;;;;;;;;;;;2.80;99.90;;;;;;4992148;28;20392;-66
2022/03/23 06:42:04;;;;;;;;;;;2.90;99.90;;;;;;4989095;28;20383;-67
2022/03/23 06:44:31;;;;;;;;;;;3.00;99.90;;;;;;4989262;28;19965;-67
2022/03/23 06:46:58;;;;;;;;;;;3.10;99.90;;;;;;4991253;28;19926;-68
2022/03/23 06:49:25;;;;;;;;;;;3.20;99.90;;;;;;4991545;28;20368;-67
2022/03/23 06:51:53;;;;;;;;;;;3.40;99.90;;;;;;4983489;28;19943;-67
2022/03/23 06:54:20;;;;;;;;;;;3.40;99.90;;;;;;4984895;28;20315;-67
2022/03/23 06:56:51;;;;;;;;;;;3.50;99.90;;;;;;4989139;28;20266;-66
2022/03/23 06:59:19;;;;;;;;;;;3.60;99.90;;;;;;4974580;28;20368;-66
2022/03/23 07:01:46;;;;;;;;;;;3.70;99.90;;;;;;4978076;28;19937;-66
2022/03/23 07:04:14;;;;;;;;;;;3.90;99.90;;;;;;4976807;28;20029;-67
2022/03/23 07:06:41;;;;;;;;;;;4.00;99.90;;;;;;4971836;28;19945;-67
2022/03/23 07:11:54;;;;;;;;;;;4.20;99.90;;;;;;4986325;28;19934;-65
2022/03/23 07:14:21;;;;;;;;;;;4.30;99.90;;;;;;4981134;28;19930;-67
2022/03/23 07:16:48;;;;;;;;;;;4.40;99.90;;;;;;4985265;28;20389;-67
2022/03/23 07:19:16;;;;;;;;;;;4.50;99.90;;;;;;4977895;28;19933;-67
2022/03/23 07:21:43;;;;;;;;;;;4.70;99.90;;;;;;4981749;28;20471;-67
2022/03/23 07:24:11;;;;;;;;;;;4.80;99.90;;;;;;4978141;28;19929;-67
2022/03/23 07:26:38;;;;;;;;;;;4.90;99.90;;;;;;4982458;28;19930;-67
2022/03/23 07:29:05;;;;;;;;;;;5.00;99.90;;;;;;4988919;28;19930;-66
2022/03/23 07:31:33;;;;;;;;;;;5.10;99.90;;;;;;4985336;28;19929;-67
2022/03/23 07:34:02;;;;;;;;;;;5.30;99.90;;;;;;4985411;28;20369;-66
2022/03/23 07:36:33;;;;;;;;;;;5.40;99.90;;;;;;4980717;28;19951;-67
2022/03/23 07:39:00;;;;;;;;;;;5.40;99.90;;;;;;4988559;28;19937;-66
2022/03/23 07:41:28;;;;;;;;;;;5.60;99.90;;;;;;4990271;28;19929;-67
2022/03/23 07:43:55;;;;;;;;;;;5.70;99.90;;;;;;4991273;28;19926;-67
2022/03/23 07:46:22;;;;;;;;;;;5.80;99.90;;;;;;4991649;28;19964;-66
2022/03/23 07:48:50;;;;;;;;;;;5.90;99.90;;;;;;4989453;28;20036;-66
2022/03/23 07:51:17;;;;;;;;;;;6.10;99.90;;;;;;4985852;28;19936;-66
2022/03/23 07:53:44;;;;;;;;;;;6.20;99.90;;;;;;4996689;28;20033;-66
2022/03/23 07:56:11;;;;;;;;;;;6.40;99.90;;;;;;4996121;28;19952;-66
2022/03/23 07:58:38;;;;;;;;;;;6.50;99.90;;;;;;4975533;28;20366;-67
2022/03/23 08:01:05;;;;;;;;;;;6.70;99.90;;;;;;4987406;28;19960;-67
2022/03/23 08:03:33;;;;;;;;;;;6.80;99.90;;;;;;4990688;28;19930;-67
2022/03/23 08:06:00;;;;;;;;;;;6.80;99.90;;;;;;4980184;28;20027;-66
2022/03/23 08:08:27;;;;;;;;;;;6.80;99.90;;;;;;4990816;28;19937;-67
2022/03/23 08:10:55;;;;;;;;;;;7.00;99.90;;;;;;4984852;28;19930;-67
2022/03/23 08:13:22;;;;;;;;;;;7.20;99.90;;;;;;4986816;28;19952;-66
2022/03/23 08:15:49;;;;;;;;;;;7.40;99.90;;;;;;4984310;28;20640;-67
2022/03/23 08:18:21;;;;;;;;;;;7.60;99.90;;;;;;4990606;28;19930;-67
2022/03/23 08:20:49;;;;;;;;;;;7.80;99.90;;;;;;4990143;28;19941;-68
2022/03/23 08:23:16;;;;;;;;;;;7.90;99.90;;;;;;5001828;28;19936;-67
2022/03/23 08:25:43;;;;;;;;;;;8.00;99.90;;;;;;4994941;28;20447;-67
2022/03/23 08:28:11;;;;;;;;;;;8.20;99.90;;;;;;4994862;28;19930;-67
2022/03/23 08:30:38;;;;;;;;;;;8.40;99.90;;;;;;4985523;28;20297;-66
2022/03/23 08:33:05;;;;;;;;;;;8.60;99.90;;;;;;4982722;28;19937;-67
2022/03/23 08:35:35;;;;;;;;;;;8.80;99.90;;;;;;4992780;28;19934;-67
2022/03/23 08:38:02;;;;;;;;;;;9.00;99.90;;;;;;4994628;28;20415;-67
2022/03/23 08:40:30;;;;;;;;;;;9.20;99.90;;;;;;4992752;28;19933;-67
2022/03/23 08:42:58;;;;;;;;;;;9.40;99.90;;;;;;4992621;28;20029;-66
2022/03/23 08:45:25;;;;;;;;;;;9.50;99.90;;;;;;4992380;28;19952;-67
2022/03/23 08:47:53;;;;;;;;;;;9.60;99.90;;;;;;4993526;28;20318;-67
2022/03/23 08:50:20;;;;;;;;;;;9.70;99.90;;;;;;4994688;28;20375;-66
2022/03/23 08:52:47;;;;;;;;;;;9.80;99.90;;;;;;4993007;28;19930;-66
2022/03/23 08:55:15;;;;;;;;;;;9.90;99.90;;;;;;4995454;28;20477;-66
2022/03/23 08:57:42;;;;;;;;;;;9.90;99.90;;;;;;4996510;28;20039;-67
2022/03/23 09:00:11;;;;;;;;;;;10.00;99.90;;;;;;4980023;28;19936;-67
2022/03/23 09:02:39;;;;;;;;;;;10.20;99.90;;;;;;4997923;28;19929;-66
2022/03/23 09:05:13;;;;;;;;;;;10.30;99.90;;;;;;4998143;28;20347;-67
2022/03/23 09:07:41;;;;;;;;;;;10.50;99.90;;;;;;4994377;28;20008;-67
2022/03/23 09:10:09;;;;;;;;;;;10.60;99.90;;;;;;4990749;28;19926;-67
2022/03/23 09:12:36;;;;;;;;;;;10.80;99.90;;;;;;4987129;28;20336;-67
2022/03/23 09:15:05;;;;;;;;;;;11.00;99.20;;;;;;4990421;28;20021;-67
2022/03/23 09:17:32;;;;;;;;;;;11.10;98.10;;;;;;4992333;28;19925;-67
2022/03/23 09:20:02;;;;;;;;;;;11.10;98.10;;;;;;4993999;28;20396;-66
2022/03/23 09:22:34;;;;;;;;;;;11.10;98.10;;;;;;4992610;28;20025;-66
2022/03/23 09:25:06;;;;;;;;;;;11.30;97.10;;;;;;4985419;28;20292;-66
2022/03/23 09:27:37;;;;;;;;;;;11.30;96.60;;;;;;4997893;28;19952;-66
2022/03/23 09:30:05;;;;;;;;;;;11.50;95.90;;;;;;4984667;28;19937;-66
2022/03/23 09:32:33;;;;;;;;;;;11.60;95.40;;;;;;4990761;28;20419;-66
2022/03/23 09:35:00;;;;;;;;;;;11.70;94.80;;;;;;4993755;28;20434;-66
2022/03/23 09:40:15;;;;;;;;;;;12.10;94.10;;;;;;4995213;28;19932;-67
2022/03/23 09:42:43;;;;;;;;;;;12.30;93.40;;;;;;4992348;28;19930;-68
2022/03/23 09:45:13;;;;;;;;;;;12.40;92.40;;;;;;4982257;28;19929;-67
2022/03/23 09:47:40;;;;;;;;;;;12.50;92.10;;;;;;5008141;28;19930;-67
2022/03/23 09:50:08;;;;;;;;;;;12.70;91.30;;;;;;4994922;28;19930;-67
2022/03/23 09:52:35;;;;;;;;;;;12.90;90.60;;;;;;4995458;28;20265;-67
2022/03/23 09:55:04;;;;;;;;;;;13.10;90.00;;;;;;4996026;28;20483;-67
2022/03/23 09:57:31;;;;;;;;;;;13.20;88.50;;;;;;4988034;28;20408;-67
2022/03/23 09:59:59;;;;;;;;;;;13.50;88.10;;;;;;4995000;28;19930;-67
2022/03/23 10:03:12;;;;;;;;;;;13.60;86.40;;;;;;4989742;28;20376;-66
2022/03/23 10:06:03;;;;;;;;;;;13.70;86.50;;;;;;4943823;29;19950;-66
2022/03/23 10:08:49;;;;;;;;;;;13.80;85.50;;;;;;4950291;29;20358;-66
2022/03/23 10:11:35;;;;;;;;;;;14.10;86.70;;;;;;4930140;29;20325;-66
2022/03/23 10:14:21;;;;;;;;;;;14.30;84.80;;;;;;4956583;28;19946;-66
2022/03/23 10:17:08;;;;;;;;;;;14.50;83.50;;;;;;4947847;29;19969;-66
2022/03/23 10:19:42;;;;;;;;;;;14.70;82.10;;;;;;4943756;28;20291;-68
2022/03/23 10:22:11;;;;;;;;;;;14.90;81.40;;;;;;4946138;29;19930;-68
2022/03/23 10:24:39;;;;;;;;;;;15.10;78.30;;;;;;4952223;29;19960;-67
2022/03/23 10:27:07;;;;;;;;;;;15.00;78.20;;;;;;4952096;28;19926;-65
2022/03/23 10:29:39;;;;;;;;;;;15.20;78.30;;;;;;4934426;29;20041;-66
2022/03/23 10:32:10;;;;;;;;;;;15.20;76.90;;;;;;4944910;28;19926;-66
2022/03/23 10:34:42;;;;;;;;;;;15.40;77.30;;;;;;4951750;29;20083;-66
2022/03/23 10:37:10;;;;;;;;;;;15.60;76.00;;;;;;4948460;29;19926;-66
2022/03/23 10:39:43;;;;;;;;;;;15.90;75.10;;;;;;4949299;29;19930;-66
2022/03/23 10:42:13;;;;;;;;;;;16.20;74.80;;;;;;4951373;28;19937;-68
2022/03/23 10:44:41;;;;;;;;;;;16.50;73.40;;;;;;4992942;28;20345;-66
2022/03/23 10:47:20;;;;;;;;;;;16.70;73.50;;;;;;4992240;28;19972;-66
2022/03/23 10:49:47;;;;;;;;;;;17.00;72.00;;;;;;4991597;28;19933;-67
2022/03/23 10:52:17;;;;;;;;;;;17.10;70.90;;;;;;5005984;28;19934;-66
2022/03/23 10:54:59;;;;;;;;;;;17.30;70.60;;;;;;4993920;28;19930;-67
2022/03/23 10:57:42;;;;;;;;;;;17.50;69.50;;;;;;4998899;28;19930;-66
2022/03/23 11:00:14;;;;;;;;;;;17.50;68.60;;;;;;4986306;28;19930;-67
2022/03/23 11:02:46;;;;;;;;;;;17.40;68.50;;;;;;4990497;28;19930;-67
2022/03/23 11:05:33;;;;;;;;;;;17.50;67.40;;;;;;4998368;28;20281;-67
2022/03/23 11:08:09;;;;;;;;;;;17.50;67.60;;;;;;4986465;28;19933;-66
2022/03/23 11:16:23;;;;;;;;;;;17.90;65.90;;;;;;4984107;28;19934;-67
2022/03/23 11:18:57;;;;;;;;;;;18.40;66.40;;;;;;4978865;28;19930;-67
2022/03/23 11:21:24;;;;;;;;;;;18.70;65.50;;;;;;4987611;28;19933;-66
2022/03/23 11:23:51;;;;;;;;;;;19.00;64.20;;;;;;4986018;28;19976;-67
2022/03/23 11:26:20;;;;;;;;;;;19.20;63.50;;;;;;4985514;28;19937;-67
2022/03/23 11:28:47;;;;;;;;;;;19.30;63.40;;;;;;4985580;28;19926;-66
2022/03/23 11:31:16;;;;;;;;;;;19.70;62.40;;;;;;4990891;28;19956;-66
2022/03/23 11:33:50;;;;;;;;;;;20.00;62.30;;;;;;4980036;28;19937;-66
2022/03/23 11:36:19;;;;;;;;;;;20.40;61.60;;;;;;4979059;28;19930;-66
2022/03/23 11:38:47;;;;;;;;;;;20.80;61.10;;;;;;4973316;28;19940;-66
2022/03/23 11:41:16;;;;;;;;;;;20.90;59.40;;;;;;4972728;28;19952;-66
2022/03/23 11:43:43;;;;;;;;;;;20.90;60.80;;;;;;4975159;28;20408;-66
2022/03/23 11:46:25;;;;;;;;;;;21.20;59.10;;;;;;4983526;28;20393;-64
2022/03/23 11:48:57;;;;;;;;;;;21.30;58.60;;;;;;4981594;28;20380;-66
2022/03/23 11:51:47;;;;;;;;;;;21.40;58.30;;;;;;4979508;28;20428;-66
2022/03/23 11:55:37;;;;;;;;;;;21.70;57.60;;;;;;4985102;28;19929;-66
2022/03/23 11:57:21;;;;;;;;;;;21.80;57.40;;;;;;4990304;28;19961;-66
2022/03/23 11:59:48;;;;;;;;;;;22.20;56.60;;;;;;4975395;28;19973;-66
2022/03/23 12:02:18;;;;;;;;;;;22.50;56.30;;;;;;4984784;28;19930;-66
2022/03/23 12:04:46;;;;;;;;;;;22.60;55.60;;;;;;4982060;28;19934;-67
2022/03/23 12:07:15;;;;;;;;;;;22.50;55.20;;;;;;4988356;28;19930;-67
2022/03/23 12:09:44;;;;;;;;;;;22.70;55.10;;;;;;5002536;28;20397;-67
2022/03/23 12:12:13;;;;;;;;;;;22.90;54.90;;;;;;4978367;28;20304;-66
2022/03/23 12:14:41;;;;;;;;;;;23.30;54.50;;;;;;4978227;28;20041;-66
2022/03/23 12:17:08;;;;;;;;;;;23.50;53.80;;;;;;4984425;28;19937;-66
2022/03/23 12:19:53;;;;;;;;;;;23.30;54.10;;;;;;4980150;28;20391;-65
2022/03/23 12:22:35;;;;;;;;;;;23.30;53.90;;;;;;4984194;28;19926;-67
2022/03/23 12:25:11;;;;;;;;;;;22.80;54.10;;;;;;4993548;28;19938;-67
2022/03/23 12:27:46;;;;;;;;;;;23.10;54.20;;;;;;4977037;28;19929;-66
2022/03/23 12:30:15;;;;;;;;;;;23.50;53.20;;;;;;4983179;28;19964;-66
2022/03/23 12:32:42;;;;;;;;;;;23.60;52.50;;;;;;4981038;28;20400;-66
2022/03/23 12:35:09;;;;;;;;;;;23.50;52.50;;;;;;4992133;28;19926;-67
2022/03/23 12:37:38;;;;;;;;;;;23.90;52.00;;;;;;4987054;28;19940;-66
2022/03/23 12:40:07;;;;;;;;;;;24.00;51.90;;;;;;4989284;28;19951;-67
2022/03/23 12:42:34;;;;;;;;;;;24.10;51.70;;;;;;4982819;28;20385;-67
2022/03/23 12:45:07;;;;;;;;;;;24.60;51.20;;;;;;5003777;28;20426;-66
2022/03/23 12:47:35;;;;;;;;;;;24.80;50.40;;;;;;4989485;28;19945;-66
2022/03/23 12:58:33;;;;;;;;;;;25.50;49.40;;;;;;4989380;28;19930;-67
2022/03/23 13:01:13;;;;;;;;;;;25.90;49.30;;;;;;4980117;28;19930;-67
2022/03/23 13:03:47;;;;;;;;;;;26.40;48.40;;;;;;4973895;28;19980;-66
2022/03/23 13:06:19;;;;;;;;;;;26.70;47.50;;;;;;4987341;28;19942;-67
2022/03/23 13:08:47;;;;;;;;;;;26.90;47.60;;;;;;4976395;28;19936;-66
2022/03/23 13:11:16;;;;;;;;;;;28.80;46.70;;;;;;4980291;28;19930;-66
2022/03/23 13:13:45;;;;;;;;;;;31.20;45.30;;;;;;4991710;28;19933;-66
2022/03/23 13:16:16;;;;;;;;;;;32.20;43.20;;;;;;4983028;28;19925;-66
2022/03/23 13:18:49;;;;;;;;;;;33.10;41.80;;;;;;4990388;28;20024;-66
2022/03/23 13:21:21;;;;;;;;;;;33.90;41.30;;;;;;4992843;28;19932;-67
2022/03/23 13:23:50;;;;;;;;;;;35.00;40.10;;;;;;4993329;28;19930;-66
2022/03/23 13:26:21;;;;;;;;;;;35.70;39.10;;;;;;4984963;28;20028;-66
2022/03/23 13:28:50;;;;;;;;;;;36.70;37.80;;;;;;4992992;28;19926;-66
2022/03/23 13:31:22;;;;;;;;;;;38.00;37.10;;;;;;4991629;28;20250;-66
2022/03/23 13:33:50;;;;;;;;;;;37.30;36.40;;;;;;4992484;28;19934;-66
2022/03/23 13:36:18;;;;;;;;;;;38.10;36.00;;;;;;4992267;28;19934;-66
2022/03/23 13:38:47;;;;;;;;;;;38.70;35.60;;;;;;4982059;28;19930;-66
2022/03/23 13:44:02;;;;;;;;;;;38.80;34.70;;;;;;4989831;28;19984;-66
2022/03/23 13:46:30;;;;;;;;;;;40.00;33.80;;;;;;4991645;28;19991;-67
2022/03/23 13:49:00;;;;;;;;;;;39.00;33.70;;;;;;4989749;28;19938;-66
2022/03/23 13:51:28;;;;;;;;;;;40.00;32.90;;;;;;5003434;28;20289;-67
2022/03/23 13:53:57;;;;;;;;;;;39.10;33.00;;;;;;4980829;28;20769;-66
2022/03/23 13:56:29;;;;;;;;;;;39.90;32.50;;;;;;4991891;28;19929;-67
2022/03/23 13:58:56;;;;;;;;;;;38.60;32.60;;;;;;4981865;28;19930;-67
2022/03/23 14:01:25;;;;;;;;;;;38.50;33.10;;;;;;4972349;28;19930;-67
2022/03/23 14:03:57;;;;;;;;;;;38.90;32.70;;;;;;4974039;28;19933;-67
2022/03/23 14:06:27;;;;;;;;;;;40.00;32.20;;;;;;4991343;28;20005;-67
2022/03/23 14:08:55;;;;;;;;;;;40.30;31.60;;;;;;4991062;28;20304;-67
2022/03/23 14:14:18;;;;;;;;;;;40.20;31.40;;;;;;4984196;28;19930;-67
2022/03/23 14:17:02;;;;;;;;;;;40.40;31.50;;;;;;4983913;28;20562;-66
2022/03/23 14:19:32;;;;;;;;;;;40.60;31.60;;;;;;4981419;28;20000;-67
2022/03/23 14:22:00;;;;;;;;;;;41.50;31.00;;;;;;4973552;28;20261;-67
2022/03/23 14:24:31;;;;;;;;;;;41.30;31.00;;;;;;4974329;28;19938;-67
2022/03/23 14:27:15;;;;;;;;;;;41.00;30.80;;;;;;4975329;28;19925;-67
2022/03/23 14:30:08;;;;;;;;;;;40.80;30.60;;;;;;4986605;28;20021;-68
2022/03/23 14:32:35;;;;;;;;;;;41.40;30.50;;;;;;4970913;28;20072;-66
2022/03/23 14:35:24;;;;;;;;;;;41.60;30.10;;;;;;4988668;28;20162;-68
2022/03/23 14:37:53;;;;;;;;;;;41.70;30.00;;;;;;4982964;28;19926;-68
2022/03/23 14:40:23;;;;;;;;;;;41.70;29.70;;;;;;4985333;28;20059;-67
2022/03/23 14:42:51;;;;;;;;;;;41.10;30.20;;;;;;4986411;28;19937;-67
2022/03/23 14:45:31;;;;;;;;;;;40.90;30.30;;;;;;4986787;28;20024;-67
2022/03/23 14:48:15;;;;;;;;;;;40.40;30.10;;;;;;4985819;28;19933;-67
2022/03/23 14:50:43;;;;;;;;;;;39.80;30.10;;;;;;4984500;28;19929;-67
2022/03/23 14:53:11;;;;;;;;;;;39.80;30.30;;;;;;4974673;28;19930;-66
2022/03/23 14:55:39;;;;;;;;;;;39.10;30.80;;;;;;4973231;28;19933;-66
2022/03/23 14:58:24;;;;;;;;;;;39.50;30.90;;;;;;4971633;28;20257;-67
2022/03/23 15:00:53;;;;;;;;;;;39.20;30.90;;;;;;4975095;28;20381;-67
2022/03/23 15:03:21;;;;;;;;;;;38.70;31.00;;;;;;4981768;28;19930;-67
2022/03/23 15:14:07;;;;;;;;;;;38.80;30.80;;;;;;4982381;28;19936;-66
2022/03/23 15:16:38;;;;;;;;;;;38.90;30.50;;;;;;4987002;28;19926;-66
2022/03/23 15:19:06;;;;;;;;;;;39.00;30.50;;;;;;4987956;28;19937;-68
2022/03/23 15:21:35;;;;;;;;;;;39.30;30.50;;;;;;4984329;28;19959;-68
2022/03/23 15:24:02;;;;;;;;;;;39.00;30.40;;;;;;4990165;28;19965;-68